Time;durP1;ratioP1;P1;durP2;ratioP2;P2;SDS_P1;SDS_P2;PMS_P1;PMS_P2;Temp;Humidity;BMP_temperature;BMP_pressure;BME280_temperature;BME280_humidity;BME280_pressure;Samples;Min_cycle;Max_cycle;Signal;HPM_P1;HPM_P2
2022/08/20 00:01:48;;;;;;;;;;;24.70;85.00;;;;;;5116069;28;19968;-55
2022/08/20 00:04:14;;;;;;;;;;;24.60;85.10;;;;;;5116148;28;19924;-56
2022/08/20 00:06:39;;;;;;;;;;;24.70;85.00;;;;;;5097656;28;19907;-57
2022/08/20 00:09:05;;;;;;;;;;;24.60;85.00;;;;;;5115793;28;20346;-57
2022/08/20 00:11:32;;;;;;;;;;;24.60;85.10;;;;;;5097500;28;19908;-56
2022/08/20 00:13:58;;;;;;;;;;;24.60;85.00;;;;;;5115629;28;20429;-56
2022/08/20 00:16:26;;;;;;;;;;;24.70;85.00;;;;;;5115377;28;19994;-58
2022/08/20 00:18:51;;;;;;;;;;;24.70;85.10;;;;;;5115311;28;19933;-55
2022/08/20 00:21:18;;;;;;;;;;;24.70;85.10;;;;;;5115561;28;19991;-57
2022/08/20 00:23:45;;;;;;;;;;;24.70;85.10;;;;;;5097288;28;20357;-57
2022/08/20 00:26:11;;;;;;;;;;;24.60;85.10;;;;;;5115007;28;19908;-59
2022/08/20 00:28:37;;;;;;;;;;;24.70;85.00;;;;;;5115401;28;19914;-54
2022/08/20 00:31:04;;;;;;;;;;;24.70;85.10;;;;;;5115379;28;20254;-56
2022/08/20 00:33:30;;;;;;;;;;;24.60;84.90;;;;;;5115256;28;19911;-55
2022/08/20 00:35:55;;;;;;;;;;;24.60;84.90;;;;;;5114989;28;20354;-57
2022/08/20 00:38:22;;;;;;;;;;;24.60;85.10;;;;;;5115542;28;19955;-55
2022/08/20 00:40:52;;;;;;;;;;;24.60;85.00;;;;;;5115389;28;19918;-56
2022/08/20 00:43:30;;;;;;;;;;;24.60;85.00;;;;;;5115209;28;19915;-56
2022/08/20 00:45:56;;;;;;;;;;;24.60;85.00;;;;;;5114744;28;20354;-57
2022/08/20 00:48:27;;;;;;;;;;;24.70;85.00;;;;;;5115151;28;20354;-56
2022/08/20 00:50:55;;;;;;;;;;;24.60;85.00;;;;;;5115023;28;19953;-58
2022/08/20 00:53:22;;;;;;;;;;;24.60;85.00;;;;;;5114286;28;19915;-57
2022/08/20 00:55:47;;;;;;;;;;;24.60;85.00;;;;;;5114620;28;19907;-54
2022/08/20 00:58:13;;;;;;;;;;;24.60;85.00;;;;;;5114695;28;19922;-55
2022/08/20 01:00:41;;;;;;;;;;;24.60;84.90;;;;;;5114876;28;20303;-57
2022/08/20 01:03:08;;;;;;;;;;;24.60;85.00;;;;;;5096287;28;20002;-56
2022/08/20 01:05:34;;;;;;;;;;;24.60;85.00;;;;;;5114821;28;20351;-57
2022/08/20 01:08:00;;;;;;;;;;;24.60;85.00;;;;;;5114955;28;19908;-55
2022/08/20 01:10:27;;;;;;;;;;;24.60;84.90;;;;;;5114853;28;19961;-56
2022/08/20 01:12:55;;;;;;;;;;;24.60;85.00;;;;;;5114709;28;20007;-56
2022/08/20 01:15:23;;;;;;;;;;;24.60;85.00;;;;;;5114411;28;20359;-57
2022/08/20 01:17:53;;;;;;;;;;;24.60;85.00;;;;;;5114948;28;19911;-57
2022/08/20 01:20:21;;;;;;;;;;;24.60;85.00;;;;;;5096428;28;20339;-57
2022/08/20 01:25:52;;;;;;;;;;;24.60;85.00;;;;;;5114387;28;19915;-56
2022/08/20 01:28:20;;;;;;;;;;;24.70;85.00;;;;;;5114555;28;19975;-55
2022/08/20 01:30:46;;;;;;;;;;;24.60;85.00;;;;;;5114553;28;19961;-53
2022/08/20 01:33:12;;;;;;;;;;;24.60;85.00;;;;;;5114218;28;19912;-56
2022/08/20 01:35:38;;;;;;;;;;;24.60;85.10;;;;;;5095940;28;19908;-56
2022/08/20 01:38:04;;;;;;;;;;;24.60;85.00;;;;;;5114045;28;20263;-56
2022/08/20 01:40:53;;;;;;;;;;;24.60;85.00;;;;;;5114328;28;19918;-57
2022/08/20 01:43:18;;;;;;;;;;;24.60;85.10;;;;;;5075717;28;19908;-56
2022/08/20 01:45:44;;;;;;;;;;;24.60;85.10;;;;;;5114354;28;19984;-57
2022/08/20 01:48:10;;;;;;;;;;;24.60;85.10;;;;;;5114018;28;19930;-57
2022/08/20 01:50:38;;;;;;;;;;;24.60;85.00;;;;;;5095978;28;19908;-56
2022/08/20 01:53:15;;;;;;;;;;;24.60;85.10;;;;;;5114643;28;19907;-56
2022/08/20 01:55:41;;;;;;;;;;;24.60;85.10;;;;;;5096101;28;20422;-57
2022/08/20 01:58:06;;;;;;;;;;;24.60;85.00;;;;;;5096043;28;19912;-58
2022/08/20 02:00:34;;;;;;;;;;;24.60;85.00;;;;;;5113849;28;19912;-57
2022/08/20 02:03:01;;;;;;;;;;;24.60;85.00;;;;;;5114208;28;19926;-55
2022/08/20 02:05:27;;;;;;;;;;;24.60;85.10;;;;;;5115246;28;19908;-56
2022/08/20 02:07:54;;;;;;;;;;;24.60;85.10;;;;;;5118121;28;19908;-54
2022/08/20 02:10:19;;;;;;;;;;;24.60;85.10;;;;;;5117943;28;19907;-56
2022/08/20 02:12:45;;;;;;;;;;;24.60;85.10;;;;;;5099810;28;20010;-57
2022/08/20 02:15:11;;;;;;;;;;;24.60;85.10;;;;;;5117910;28;20343;-57
2022/08/20 02:17:37;;;;;;;;;;;24.60;85.10;;;;;;5099635;28;20417;-56
2022/08/20 02:20:06;;;;;;;;;;;24.60;85.10;;;;;;5117582;28;20290;-56
2022/08/20 02:22:44;;;;;;;;;;;24.60;85.20;;;;;;5117881;28;19962;-55
2022/08/20 02:25:10;;;;;;;;;;;24.60;85.20;;;;;;5099842;28;20262;-55
2022/08/20 02:27:37;;;;;;;;;;;24.60;85.10;;;;;;5117760;28;19907;-56
2022/08/20 02:30:06;;;;;;;;;;;24.60;85.30;;;;;;5117177;28;19952;-57
2022/08/20 02:32:31;;;;;;;;;;;24.60;85.10;;;;;;5099356;28;20250;-56
2022/08/20 02:34:56;;;;;;;;;;;24.60;85.20;;;;;;5117283;28;19908;-55
2022/08/20 02:37:22;;;;;;;;;;;24.60;85.20;;;;;;5117527;28;19911;-56
2022/08/20 02:39:47;;;;;;;;;;;24.60;85.10;;;;;;5117550;28;19919;-56
2022/08/20 02:42:13;;;;;;;;;;;24.60;85.20;;;;;;5117023;28;19912;-56
2022/08/20 02:44:38;;;;;;;;;;;24.60;85.20;;;;;;5117139;28;19908;-56
2022/08/20 02:47:05;;;;;;;;;;;24.60;85.20;;;;;;5117444;28;19918;-54
2022/08/20 02:49:30;;;;;;;;;;;24.60;85.10;;;;;;5117684;28;19908;-55
2022/08/20 02:51:56;;;;;;;;;;;24.60;85.10;;;;;;5117009;28;19915;-57
2022/08/20 02:54:22;;;;;;;;;;;24.60;85.20;;;;;;5117006;28;20350;-56
2022/08/20 02:56:47;;;;;;;;;;;24.60;85.20;;;;;;5116877;28;20404;-56
2022/08/20 02:59:13;;;;;;;;;;;24.60;85.30;;;;;;5117013;28;20006;-56
2022/08/20 03:01:38;;;;;;;;;;;24.60;85.30;;;;;;5117125;28;20358;-55
2022/08/20 03:04:04;;;;;;;;;;;24.60;85.20;;;;;;5117350;28;19919;-56
2022/08/20 03:06:29;;;;;;;;;;;24.60;85.30;;;;;;5116896;28;20354;-56
2022/08/20 03:08:55;;;;;;;;;;;24.50;85.30;;;;;;5116931;28;19955;-57
2022/08/20 03:11:20;;;;;;;;;;;24.50;85.30;;;;;;5116696;28;20251;-56
2022/08/20 03:13:46;;;;;;;;;;;24.50;85.30;;;;;;5116732;28;20319;-53
2022/08/20 03:16:13;;;;;;;;;;;24.60;85.20;;;;;;5116075;28;20315;-55
2022/08/20 03:18:40;;;;;;;;;;;24.50;85.20;;;;;;5115840;28;20003;-55
2022/08/20 03:21:06;;;;;;;;;;;24.50;85.30;;;;;;5116986;28;19966;-54
2022/08/20 03:23:32;;;;;;;;;;;24.50;85.30;;;;;;5116750;28;19907;-55
2022/08/20 03:25:58;;;;;;;;;;;24.50;85.20;;;;;;5116465;28;20399;-54
2022/08/20 03:28:24;;;;;;;;;;;24.50;85.30;;;;;;5116254;28;19908;-56
2022/08/20 03:30:50;;;;;;;;;;;24.60;85.30;;;;;;5116563;28;19931;-56
2022/08/20 03:33:16;;;;;;;;;;;24.50;85.30;;;;;;5116113;28;20014;-55
2022/08/20 03:35:41;;;;;;;;;;;24.50;85.20;;;;;;5116359;28;20362;-57
2022/08/20 03:38:08;;;;;;;;;;;24.50;85.30;;;;;;5116033;28;19912;-57
2022/08/20 03:40:34;;;;;;;;;;;24.50;85.30;;;;;;5116088;28;20010;-57
2022/08/20 03:43:00;;;;;;;;;;;24.50;85.30;;;;;;5115991;28;19915;-56
2022/08/20 03:45:26;;;;;;;;;;;24.50;85.30;;;;;;5098086;28;19958;-57
2022/08/20 03:47:53;;;;;;;;;;;24.50;85.30;;;;;;5115958;28;19999;-57
2022/08/20 03:50:20;;;;;;;;;;;24.50;85.30;;;;;;5115758;28;19907;-56
2022/08/20 03:52:45;;;;;;;;;;;24.50;85.30;;;;;;5115965;28;19908;-55
2022/08/20 03:55:11;;;;;;;;;;;24.50;85.30;;;;;;5115741;28;20369;-56
2022/08/20 03:57:43;;;;;;;;;;;24.50;85.30;;;;;;5097315;28;19918;-57
2022/08/20 04:00:10;;;;;;;;;;;24.50;85.30;;;;;;5115817;28;19962;-52
2022/08/20 04:02:35;;;;;;;;;;;24.50;85.40;;;;;;5115823;28;19998;-56
2022/08/20 04:05:01;;;;;;;;;;;24.50;85.40;;;;;;5115824;28;19947;-55
2022/08/20 04:07:26;;;;;;;;;;;24.50;85.40;;;;;;5115733;28;20269;-57
2022/08/20 04:09:53;;;;;;;;;;;24.50;85.30;;;;;;5116202;28;20019;-57
2022/08/20 04:12:19;;;;;;;;;;;24.50;85.40;;;;;;5115362;28;19950;-56
2022/08/20 04:14:45;;;;;;;;;;;24.50;85.40;;;;;;5115705;28;19919;-57
2022/08/20 04:17:11;;;;;;;;;;;24.50;85.40;;;;;;5097130;28;19915;-55
2022/08/20 04:19:37;;;;;;;;;;;24.50;85.40;;;;;;5115252;28;19999;-55
2022/08/20 04:22:04;;;;;;;;;;;24.50;85.30;;;;;;5115532;28;19958;-57
2022/08/20 04:24:30;;;;;;;;;;;24.50;85.40;;;;;;5115557;28;19915;-55
2022/08/20 04:26:56;;;;;;;;;;;24.50;85.40;;;;;;5115184;28;19907;-57
2022/08/20 04:29:23;;;;;;;;;;;24.50;85.40;;;;;;5115249;28;19908;-54
2022/08/20 04:31:49;;;;;;;;;;;24.50;85.40;;;;;;5097104;28;19980;-57
2022/08/20 04:34:17;;;;;;;;;;;24.50;85.50;;;;;;5115319;28;20354;-56
2022/08/20 04:36:43;;;;;;;;;;;24.50;85.40;;;;;;5115265;28;19915;-55
2022/08/20 04:39:08;;;;;;;;;;;24.50;85.90;;;;;;5114834;28;19912;-56
2022/08/20 04:41:34;;;;;;;;;;;24.50;85.40;;;;;;5114921;28;19973;-55
2022/08/20 04:43:59;;;;;;;;;;;24.50;85.40;;;;;;5114761;28;19907;-57
2022/08/20 04:46:27;;;;;;;;;;;24.40;85.40;;;;;;5115083;28;19911;-57
2022/08/20 04:48:53;;;;;;;;;;;24.50;85.50;;;;;;5114930;28;19954;-57
2022/08/20 04:51:19;;;;;;;;;;;24.50;85.50;;;;;;5111607;28;19907;-57
2022/08/20 04:53:44;;;;;;;;;;;24.50;85.50;;;;;;5085467;28;19935;-56
2022/08/20 04:56:11;;;;;;;;;;;24.50;85.90;;;;;;5082883;28;19908;-55
2022/08/20 04:58:37;;;;;;;;;;;24.50;85.50;;;;;;5082560;28;19912;-56
2022/08/20 05:01:04;;;;;;;;;;;24.50;85.40;;;;;;5074312;28;19913;-57
2022/08/20 05:03:30;;;;;;;;;;;24.50;85.40;;;;;;5080006;28;20012;-58
2022/08/20 05:05:56;;;;;;;;;;;24.40;85.50;;;;;;5094200;28;19908;-56
2022/08/20 05:08:22;;;;;;;;;;;24.40;85.50;;;;;;5094718;28;19916;-55
2022/08/20 05:10:48;;;;;;;;;;;24.40;85.50;;;;;;5093973;28;19909;-57
2022/08/20 05:13:14;;;;;;;;;;;24.50;85.50;;;;;;5093917;28;20286;-57
2022/08/20 05:15:39;;;;;;;;;;;24.50;85.50;;;;;;5094384;28;19909;-57
2022/08/20 05:18:06;;;;;;;;;;;24.50;85.50;;;;;;5076143;28;19920;-55
2022/08/20 05:20:33;;;;;;;;;;;24.50;85.50;;;;;;5093824;28;19958;-56
2022/08/20 05:23:00;;;;;;;;;;;24.50;85.50;;;;;;5076429;28;19908;-55
2022/08/20 05:25:29;;;;;;;;;;;24.50;85.50;;;;;;5094141;28;19912;-57
2022/08/20 05:27:59;;;;;;;;;;;24.50;85.60;;;;;;5075874;28;20105;-57
2022/08/20 05:30:26;;;;;;;;;;;24.50;85.50;;;;;;5093618;28;20417;-57
2022/08/20 05:32:51;;;;;;;;;;;24.50;85.60;;;;;;5075476;28;19958;-54
2022/08/20 05:35:17;;;;;;;;;;;24.50;85.60;;;;;;5093772;28;19955;-55
2022/08/20 05:37:42;;;;;;;;;;;24.50;85.50;;;;;;5093784;28;20262;-57
2022/08/20 05:40:09;;;;;;;;;;;24.50;85.60;;;;;;5094564;28;19919;-55
2022/08/20 05:42:35;;;;;;;;;;;24.40;85.50;;;;;;5097817;28;19919;-56
2022/08/20 05:45:00;;;;;;;;;;;24.50;85.50;;;;;;5097627;28;20255;-57
2022/08/20 05:47:27;;;;;;;;;;;24.50;85.60;;;;;;5096628;28;19908;-56
2022/08/20 05:49:52;;;;;;;;;;;24.50;85.50;;;;;;5098000;28;19915;-56
2022/08/20 05:52:18;;;;;;;;;;;24.50;85.50;;;;;;5113393;28;19912;-55
2022/08/20 05:54:43;;;;;;;;;;;24.50;85.50;;;;;;5099962;28;20335;-58
2022/08/20 05:57:09;;;;;;;;;;;24.50;85.50;;;;;;5118174;28;19914;-55
2022/08/20 05:59:35;;;;;;;;;;;24.50;85.50;;;;;;5118539;28;19942;-56
2022/08/20 06:04:23;;;;;;;;;;;24.50;85.50;;;;;;5117989;28;19919;-57
2022/08/20 06:04:46;;;;;;;;;;;24.50;85.50;;;;;;5103725;28;19908;-54
2022/08/20 06:07:11;;;;;;;;;;;24.50;85.50;;;;;;5097697;28;19914;-54
2022/08/20 06:09:37;;;;;;;;;;;24.50;86.10;;;;;;5106686;28;19994;-57
2022/08/20 06:12:04;;;;;;;;;;;24.50;85.50;;;;;;5099653;28;19907;-56
2022/08/20 06:14:30;;;;;;;;;;;24.50;85.50;;;;;;5117652;28;20354;-55
2022/08/20 06:17:03;;;;;;;;;;;24.50;85.50;;;;;;5117487;28;20377;-57
2022/08/20 06:19:29;;;;;;;;;;;24.50;85.50;;;;;;5117661;28;19912;-57
2022/08/20 06:21:55;;;;;;;;;;;24.50;85.50;;;;;;5110899;28;19915;-54
2022/08/20 06:24:20;;;;;;;;;;;24.50;85.50;;;;;;5117337;28;19908;-55
2022/08/20 06:26:46;;;;;;;;;;;24.50;85.40;;;;;;5117674;28;20474;-55
2022/08/20 06:29:11;;;;;;;;;;;24.50;85.50;;;;;;5103224;28;19912;-57
2022/08/20 06:31:38;;;;;;;;;;;24.50;86.00;;;;;;5079071;28;19908;-55
2022/08/20 06:34:04;;;;;;;;;;;24.50;85.60;;;;;;5097172;28;19912;-57
2022/08/20 06:36:29;;;;;;;;;;;24.50;85.60;;;;;;5097079;28;19908;-56
2022/08/20 06:38:57;;;;;;;;;;;24.50;85.60;;;;;;5096498;28;20000;-55
2022/08/20 06:41:23;;;;;;;;;;;24.50;85.60;;;;;;5096876;28;19965;-57
2022/08/20 06:43:49;;;;;;;;;;;24.60;85.60;;;;;;5096929;28;19915;-57
2022/08/20 06:46:15;;;;;;;;;;;24.50;85.50;;;;;;5096301;28;19947;-56
2022/08/20 06:48:40;;;;;;;;;;;24.50;85.50;;;;;;5098972;28;20428;-55
2022/08/20 06:51:06;;;;;;;;;;;24.50;85.40;;;;;;5117015;28;20330;-59
2022/08/20 06:53:31;;;;;;;;;;;24.50;85.60;;;;;;5115583;28;20286;-59
2022/08/20 06:55:58;;;;;;;;;;;24.50;85.60;;;;;;5100656;28;19909;-57
2022/08/20 06:58:23;;;;;;;;;;;24.50;85.90;;;;;;5096131;28;20418;-55
2022/08/20 07:00:49;;;;;;;;;;;24.50;86.20;;;;;;5096013;28;19962;-54
2022/08/20 07:03:15;;;;;;;;;;;24.50;86.40;;;;;;5096452;28;20411;-50
2022/08/20 07:05:41;;;;;;;;;;;24.50;86.40;;;;;;5078397;28;20361;-56
2022/08/20 07:08:12;;;;;;;;;;;24.50;86.80;;;;;;5096125;28;19915;-55
2022/08/20 07:10:38;;;;;;;;;;;24.50;87.90;;;;;;5095958;28;19908;-56
2022/08/20 07:13:05;;;;;;;;;;;24.40;88.20;;;;;;5095921;28;19955;-52
2022/08/20 07:15:31;;;;;;;;;;;24.40;89.10;;;;;;5096303;28;19908;-52
2022/08/20 07:17:58;;;;;;;;;;;24.30;89.40;;;;;;5108320;28;20022;-53
2022/08/20 07:20:24;;;;;;;;;;;24.20;89.60;;;;;;5112919;28;19916;-51
2022/08/20 07:22:50;;;;;;;;;;;24.10;89.90;;;;;;5096153;28;20362;-53
2022/08/20 07:25:17;;;;;;;;;;;24.00;90.00;;;;;;5096074;28;20367;-49
2022/08/20 07:27:43;;;;;;;;;;;24.00;90.10;;;;;;5095768;28;19908;-51
2022/08/20 07:32:58;;;;;;;;;;;24.00;90.20;;;;;;5116477;28;19919;-53
2022/08/20 07:35:24;;;;;;;;;;;23.90;90.20;;;;;;5097698;28;19908;-51
2022/08/20 07:37:50;;;;;;;;;;;23.80;90.30;;;;;;5109609;28;19974;-52
2022/08/20 07:40:19;;;;;;;;;;;23.80;90.30;;;;;;5075328;28;19920;-52
2022/08/20 07:42:44;;;;;;;;;;;23.80;90.30;;;;;;5074257;28;20395;-50
2022/08/20 07:45:11;;;;;;;;;;;23.80;90.40;;;;;;5076102;28;19908;-50
2022/08/20 07:47:38;;;;;;;;;;;23.90;90.50;;;;;;5095128;28;19915;-49
2022/08/20 07:50:04;;;;;;;;;;;23.80;90.60;;;;;;5095278;28;19908;-51
2022/08/20 07:52:30;;;;;;;;;;;23.80;90.60;;;;;;5095349;28;19912;-52
2022/08/20 07:54:55;;;;;;;;;;;23.80;90.60;;;;;;5095277;28;20309;-47
2022/08/20 07:57:21;;;;;;;;;;;23.80;90.60;;;;;;5095319;28;19916;-51
2022/08/20 07:59:47;;;;;;;;;;;23.80;90.50;;;;;;5095043;28;19919;-53
2022/08/20 08:02:13;;;;;;;;;;;23.80;90.60;;;;;;5087415;28;19908;-51
2022/08/20 08:04:38;;;;;;;;;;;23.70;90.60;;;;;;5093897;28;20382;-54
2022/08/20 08:07:04;;;;;;;;;;;23.80;90.60;;;;;;5093152;28;19917;-53
2022/08/20 08:09:31;;;;;;;;;;;23.80;90.60;;;;;;5083693;28;20003;-52
2022/08/20 08:11:57;;;;;;;;;;;23.80;90.70;;;;;;5081857;28;19933;-52
2022/08/20 08:14:25;;;;;;;;;;;23.70;90.70;;;;;;5087507;28;19908;-53
2022/08/20 08:16:56;;;;;;;;;;;23.70;90.60;;;;;;5094526;28;20358;-54
2022/08/20 08:19:23;;;;;;;;;;;23.70;90.70;;;;;;5094751;28;19923;-54
2022/08/20 08:21:49;;;;;;;;;;;23.70;90.70;;;;;;5076733;28;19915;-50
2022/08/20 08:24:16;;;;;;;;;;;23.70;90.60;;;;;;5094877;28;19919;-50
2022/08/20 08:26:42;;;;;;;;;;;23.80;90.50;;;;;;5076546;28;19914;-51
2022/08/20 08:29:08;;;;;;;;;;;23.90;90.10;;;;;;5105553;28;19911;-55
2022/08/20 08:31:33;;;;;;;;;;;24.00;90.00;;;;;;5095026;28;20260;-51
2022/08/20 08:33:59;;;;;;;;;;;24.00;89.90;;;;;;5094349;28;19908;-55
2022/08/20 08:36:25;;;;;;;;;;;24.10;89.90;;;;;;5094147;28;20244;-53
2022/08/20 08:38:51;;;;;;;;;;;24.10;89.80;;;;;;5094298;28;19920;-54
2022/08/20 08:41:31;;;;;;;;;;;24.10;89.50;;;;;;5094438;28;20359;-52
2022/08/20 08:44:05;;;;;;;;;;;24.10;89.40;;;;;;5076213;28;19912;-51
2022/08/20 08:46:34;;;;;;;;;;;24.20;89.30;;;;;;5076165;28;19908;-56
2022/08/20 08:49:02;;;;;;;;;;;24.10;89.00;;;;;;5094464;28;19915;-54
2022/08/20 08:51:37;;;;;;;;;;;24.20;89.00;;;;;;5076223;28;19914;-53
2022/08/20 08:54:04;;;;;;;;;;;24.20;88.80;;;;;;5094510;28;19908;-54
2022/08/20 08:56:29;;;;;;;;;;;24.20;88.70;;;;;;5093981;28;19920;-49
2022/08/20 08:59:00;;;;;;;;;;;24.20;88.60;;;;;;5094204;28;19939;-53
2022/08/20 09:01:27;;;;;;;;;;;24.20;88.50;;;;;;5094021;28;19912;-55
2022/08/20 09:03:52;;;;;;;;;;;24.20;88.50;;;;;;5094061;28;19927;-52
2022/08/20 09:06:21;;;;;;;;;;;24.20;88.30;;;;;;5094255;28;19908;-53
2022/08/20 09:08:49;;;;;;;;;;;24.30;88.40;;;;;;5093972;28;20343;-55
2022/08/20 09:11:15;;;;;;;;;;;24.20;88.20;;;;;;5094154;28;19955;-52
2022/08/20 09:13:42;;;;;;;;;;;24.30;88.10;;;;;;5093791;28;19911;-55
2022/08/20 09:16:08;;;;;;;;;;;24.30;88.20;;;;;;5093062;28;20355;-52
2022/08/20 09:18:33;;;;;;;;;;;24.20;88.10;;;;;;5093801;28;19965;-53
2022/08/20 09:20:58;;;;;;;;;;;24.30;88.00;;;;;;5075890;28;19913;-51
2022/08/20 09:23:24;;;;;;;;;;;24.30;88.00;;;;;;5094095;28;19912;-50
2022/08/20 09:25:49;;;;;;;;;;;24.30;87.80;;;;;;5093597;28;20366;-52
2022/08/20 09:28:15;;;;;;;;;;;24.30;87.90;;;;;;5075767;28;19912;-53
2022/08/20 09:30:40;;;;;;;;;;;24.20;87.80;;;;;;5093684;28;20069;-54
2022/08/20 09:33:06;;;;;;;;;;;24.30;87.90;;;;;;5075807;28;19908;-53
2022/08/20 09:35:33;;;;;;;;;;;24.30;87.80;;;;;;5093574;28;20274;-55
2022/08/20 09:37:58;;;;;;;;;;;24.30;87.70;;;;;;5075664;28;20002;-55
2022/08/20 09:40:24;;;;;;;;;;;24.30;87.70;;;;;;5093784;28;19948;-53
2022/08/20 09:42:50;;;;;;;;;;;24.30;87.70;;;;;;5093803;28;19942;-55
2022/08/20 09:45:16;;;;;;;;;;;24.30;87.60;;;;;;5075572;28;19912;-55
2022/08/20 09:47:41;;;;;;;;;;;24.30;87.60;;;;;;5093441;28;20323;-56
2022/08/20 09:50:08;;;;;;;;;;;24.30;87.60;;;;;;5093684;28;19909;-54
2022/08/20 09:52:38;;;;;;;;;;;24.30;87.50;;;;;;5075499;28;19908;-54
2022/08/20 09:55:11;;;;;;;;;;;24.30;87.60;;;;;;5093988;28;19909;-55
2022/08/20 09:57:36;;;;;;;;;;;24.30;87.50;;;;;;5093656;28;19985;-52
2022/08/20 10:00:07;;;;;;;;;;;24.30;87.50;;;;;;5093512;28;20278;-54
2022/08/20 10:02:32;;;;;;;;;;;24.30;87.50;;;;;;5093431;28;19927;-54
2022/08/20 10:04:58;;;;;;;;;;;24.30;87.50;;;;;;5093514;28;19908;-53
2022/08/20 10:07:23;;;;;;;;;;;24.30;87.50;;;;;;5075263;28;20342;-52
2022/08/20 10:09:49;;;;;;;;;;;24.30;87.30;;;;;;5093104;28;19914;-56
2022/08/20 10:12:14;;;;;;;;;;;24.30;87.40;;;;;;5092995;28;19912;-54
2022/08/20 10:14:40;;;;;;;;;;;24.30;87.40;;;;;;5092867;28;19909;-55
2022/08/20 10:17:05;;;;;;;;;;;24.30;87.40;;;;;;5093216;28;19915;-53
2022/08/20 10:19:31;;;;;;;;;;;24.30;87.40;;;;;;5093358;28;20328;-57
2022/08/20 10:21:57;;;;;;;;;;;24.30;87.30;;;;;;5075328;28;19915;-52
2022/08/20 10:24:22;;;;;;;;;;;24.30;87.30;;;;;;5093058;28;19908;-56
2022/08/20 10:26:48;;;;;;;;;;;24.30;87.30;;;;;;5094803;28;20261;-54
2022/08/20 10:29:14;;;;;;;;;;;24.30;87.30;;;;;;5097112;28;19953;-54
2022/08/20 10:31:39;;;;;;;;;;;24.30;87.30;;;;;;5096912;28;19914;-56
2022/08/20 10:34:05;;;;;;;;;;;24.30;87.20;;;;;;5096759;28;19912;-55
2022/08/20 10:36:30;;;;;;;;;;;24.30;87.20;;;;;;5096546;28;20002;-52
2022/08/20 10:38:56;;;;;;;;;;;24.30;87.20;;;;;;5078738;28;19920;-55
2022/08/20 10:41:21;;;;;;;;;;;24.30;87.20;;;;;;5096624;28;19912;-54
2022/08/20 10:43:47;;;;;;;;;;;24.30;87.10;;;;;;5078761;28;20045;-53
2022/08/20 10:46:12;;;;;;;;;;;24.30;87.10;;;;;;5097336;28;20262;-56
2022/08/20 10:48:38;;;;;;;;;;;24.30;87.10;;;;;;5096802;28;19908;-54
2022/08/20 10:51:03;;;;;;;;;;;24.30;87.00;;;;;;5096810;28;19915;-54
2022/08/20 10:53:29;;;;;;;;;;;24.40;87.00;;;;;;5078449;28;19915;-53
2022/08/20 10:55:56;;;;;;;;;;;24.30;87.00;;;;;;5096616;28;19918;-52
2022/08/20 10:58:22;;;;;;;;;;;24.40;87.00;;;;;;5096009;28;19966;-55
2022/08/20 11:00:47;;;;;;;;;;;24.30;86.90;;;;;;5096504;28;19916;-54
2022/08/20 11:03:13;;;;;;;;;;;24.40;87.00;;;;;;5095926;28;19943;-53
2022/08/20 11:05:38;;;;;;;;;;;24.40;87.00;;;;;;5096104;28;20370;-56
2022/08/20 11:08:04;;;;;;;;;;;24.30;86.90;;;;;;5096170;28;20163;-54
2022/08/20 11:10:32;;;;;;;;;;;24.30;86.80;;;;;;5095945;28;19908;-53
2022/08/20 11:12:57;;;;;;;;;;;24.40;86.90;;;;;;5096512;28;19908;-52
2022/08/20 11:15:23;;;;;;;;;;;24.30;86.80;;;;;;5096148;28;19915;-54
2022/08/20 11:17:49;;;;;;;;;;;24.40;86.90;;;;;;5095613;28;20347;-55
2022/08/20 11:20:16;;;;;;;;;;;24.40;86.90;;;;;;5096136;28;19923;-53
2022/08/20 11:22:41;;;;;;;;;;;24.40;86.80;;;;;;5095994;28;19959;-55
2022/08/20 11:25:08;;;;;;;;;;;24.30;86.80;;;;;;5096407;28;20020;-54
2022/08/20 11:27:35;;;;;;;;;;;24.40;86.80;;;;;;5095946;28;19994;-54
2022/08/20 11:30:01;;;;;;;;;;;24.40;86.80;;;;;;5095822;28;19919;-55
2022/08/20 11:32:27;;;;;;;;;;;24.40;86.80;;;;;;5095903;28;19908;-53
2022/08/20 11:34:52;;;;;;;;;;;24.40;86.80;;;;;;5095736;28;19954;-55
2022/08/20 11:37:19;;;;;;;;;;;24.40;86.70;;;;;;5095038;28;19947;-54
2022/08/20 11:39:44;;;;;;;;;;;24.40;86.70;;;;;;5095137;28;20376;-53
2022/08/20 11:42:10;;;;;;;;;;;24.40;86.70;;;;;;5077641;28;19908;-53
2022/08/20 11:44:36;;;;;;;;;;;24.40;86.70;;;;;;5095714;28;19908;-55
2022/08/20 11:47:02;;;;;;;;;;;24.40;86.70;;;;;;5095644;28;19990;-55
2022/08/20 11:49:32;;;;;;;;;;;24.40;86.70;;;;;;5095601;28;19909;-56
2022/08/20 11:51:57;;;;;;;;;;;24.40;86.70;;;;;;5095200;28;19915;-53
2022/08/20 11:54:23;;;;;;;;;;;24.40;86.70;;;;;;5091431;28;20291;-53
2022/08/20 11:56:48;;;;;;;;;;;24.40;86.70;;;;;;5082597;28;19909;-53
2022/08/20 11:59:14;;;;;;;;;;;24.40;87.00;;;;;;5094957;28;19919;-52
2022/08/20 12:01:40;;;;;;;;;;;24.40;87.20;;;;;;5088411;28;19917;-53
2022/08/20 12:04:05;;;;;;;;;;;24.40;87.10;;;;;;5075084;28;19920;-54
2022/08/20 12:06:32;;;;;;;;;;;24.40;87.00;;;;;;5086860;28;19972;-53
2022/08/20 12:08:58;;;;;;;;;;;24.40;87.00;;;;;;5083010;28;19909;-54
2022/08/20 12:11:23;;;;;;;;;;;24.40;87.00;;;;;;5098324;28;20433;-54
2022/08/20 12:13:49;;;;;;;;;;;24.40;87.00;;;;;;5095087;28;19984;-56
2022/08/20 12:16:15;;;;;;;;;;;24.40;87.00;;;;;;5094432;28;20001;-54
2022/08/20 12:18:41;;;;;;;;;;;24.40;87.00;;;;;;5094579;28;20316;-51
2022/08/20 12:21:06;;;;;;;;;;;24.40;86.90;;;;;;5076672;28;19916;-54
2022/08/20 12:23:32;;;;;;;;;;;24.40;86.90;;;;;;5094324;28;20351;-53
2022/08/20 12:26:01;;;;;;;;;;;24.40;86.90;;;;;;5081703;28;19967;-53
2022/08/20 12:28:27;;;;;;;;;;;24.40;86.90;;;;;;5108345;28;19954;-54
2022/08/20 12:30:52;;;;;;;;;;;24.40;86.90;;;;;;5114779;28;19943;-56
2022/08/20 12:33:18;;;;;;;;;;;24.40;86.80;;;;;;5106705;28;20011;-52
2022/08/20 12:35:43;;;;;;;;;;;24.40;86.90;;;;;;5077600;28;19913;-55
2022/08/20 12:38:08;;;;;;;;;;;24.50;87.00;;;;;;5074200;28;20309;-52
2022/08/20 12:40:34;;;;;;;;;;;24.50;86.90;;;;;;5089658;28;19912;-55
2022/08/20 12:43:00;;;;;;;;;;;24.40;86.80;;;;;;5094079;28;19912;-55
2022/08/20 12:45:26;;;;;;;;;;;24.50;86.80;;;;;;5094542;28;19951;-56
2022/08/20 12:47:51;;;;;;;;;;;24.50;86.80;;;;;;5094472;28;19947;-54
2022/08/20 12:50:22;;;;;;;;;;;24.50;86.80;;;;;;5094127;28;19908;-54
2022/08/20 12:52:48;;;;;;;;;;;24.50;86.80;;;;;;5091846;28;20007;-55
2022/08/20 12:55:15;;;;;;;;;;;24.50;86.80;;;;;;5093918;28;19944;-56
2022/08/20 12:57:42;;;;;;;;;;;24.50;86.80;;;;;;5093948;28;19912;-51
2022/08/20 13:00:10;;;;;;;;;;;24.50;86.90;;;;;;5076146;28;20251;-55
2022/08/20 13:02:37;;;;;;;;;;;24.50;86.90;;;;;;5082863;28;19925;-53
2022/08/20 13:05:03;;;;;;;;;;;24.50;86.80;;;;;;5073777;28;19908;-53
2022/08/20 13:07:29;;;;;;;;;;;24.50;86.80;;;;;;5088986;28;19947;-52
2022/08/20 13:09:54;;;;;;;;;;;24.50;86.90;;;;;;5092912;28;19955;-52
2022/08/20 13:12:20;;;;;;;;;;;24.50;86.90;;;;;;5087285;28;20007;-56
2022/08/20 13:14:45;;;;;;;;;;;24.50;86.80;;;;;;5092356;28;19908;-55
2022/08/20 13:17:11;;;;;;;;;;;24.50;86.80;;;;;;5091466;28;19915;-55
2022/08/20 13:19:37;;;;;;;;;;;24.50;86.80;;;;;;5092518;28;19923;-55
2022/08/20 13:22:03;;;;;;;;;;;24.50;86.90;;;;;;5092536;28;19916;-54
2022/08/20 13:24:29;;;;;;;;;;;24.50;86.90;;;;;;5091364;28;19908;-52
2022/08/20 13:27:02;;;;;;;;;;;24.50;86.90;;;;;;5085627;28;20735;-53
2022/08/20 13:29:27;;;;;;;;;;;24.50;86.90;;;;;;5089495;28;19931;-50
2022/08/20 13:31:53;;;;;;;;;;;24.50;86.90;;;;;;5073980;28;19916;-52
2022/08/20 13:34:18;;;;;;;;;;;24.50;86.90;;;;;;5092030;28;19908;-54
2022/08/20 13:36:44;;;;;;;;;;;24.50;86.80;;;;;;5092095;28;20384;-50
2022/08/20 13:39:09;;;;;;;;;;;24.50;86.80;;;;;;5092006;28;20007;-54
2022/08/20 13:41:35;;;;;;;;;;;24.50;86.70;;;;;;5086496;28;19924;-50
2022/08/20 13:44:00;;;;;;;;;;;24.50;86.80;;;;;;5091957;28;19912;-53
2022/08/20 13:46:26;;;;;;;;;;;24.50;86.80;;;;;;5072924;28;19912;-49
2022/08/20 13:48:51;;;;;;;;;;;24.50;86.90;;;;;;5092305;28;19908;-52
2022/08/20 13:51:17;;;;;;;;;;;24.50;86.90;;;;;;5092285;28;20010;-52
2022/08/20 13:53:42;;;;;;;;;;;24.50;86.90;;;;;;5092011;28;19973;-51
2022/08/20 13:56:08;;;;;;;;;;;24.50;86.90;;;;;;5092055;28;19908;-50
2022/08/20 13:58:33;;;;;;;;;;;24.50;86.90;;;;;;5091908;28;19912;-54
2022/08/20 14:00:59;;;;;;;;;;;24.50;86.90;;;;;;5092613;28;19965;-55
2022/08/20 14:03:24;;;;;;;;;;;24.50;87.00;;;;;;5096357;28;19924;-51
2022/08/20 14:05:49;;;;;;;;;;;24.60;87.00;;;;;;5097364;28;19908;-50
2022/08/20 14:08:16;;;;;;;;;;;24.50;87.10;;;;;;5095258;28;19912;-54
2022/08/20 14:10:43;;;;;;;;;;;24.50;87.00;;;;;;5097122;28;20278;-52
2022/08/20 14:13:09;;;;;;;;;;;24.50;87.00;;;;;;5079078;28;19908;-52
2022/08/20 14:15:35;;;;;;;;;;;24.50;87.00;;;;;;5097663;28;19960;-51
2022/08/20 14:18:00;;;;;;;;;;;24.50;87.00;;;;;;5096611;28;20010;-51